sensor_id;sensor_type;location;lat;lon;timestamp;pressure;altitude;pressure_sealevel;temperature;humidity
6694;BME280;3384;42.628;23.380;2023-06-24T00:01:29;94228.56;;;22.52;100.00
6694;BME280;3384;42.628;23.380;2023-06-24T00:03:57;94227.50;;;22.27;100.00
6694;BME280;3384;42.628;23.380;2023-06-24T00:06:24;94234.03;;;22.49;100.00
6694;BME280;3384;42.628;23.380;2023-06-24T00:08:52;94223.28;;;22.33;100.00
6694;BME280;3384;42.628;23.380;2023-06-24T00:11:26;94225.69;;;22.38;100.00
6694;BME280;3384;42.628;23.380;2023-06-24T00:13:53;94232.31;;;22.37;100.00
6694;BME280;3384;42.628;23.380;2023-06-24T00:16:19;94228.31;;;21.95;100.00
6694;BME280;3384;42.628;23.380;2023-06-24T00:18:54;94224.19;;;22.11;100.00
6694;BME280;3384;42.628;23.380;2023-06-24T00:21:23;94219.22;;;22.17;100.00
6694;BME280;3384;42.628;23.380;2023-06-24T00:23:55;94225.22;;;21.96;100.00
6694;BME280;3384;42.628;23.380;2023-06-24T00:26:22;94224.91;;;22.01;100.00
6694;BME280;3384;42.628;23.380;2023-06-24T00:28:49;94225.72;;;22.05;100.00
6694;BME280;3384;42.628;23.380;2023-06-24T00:31:16;94223.13;;;21.86;100.00
6694;BME280;3384;42.628;23.380;2023-06-24T00:33:43;94231.63;;;22.11;100.00
6694;BME280;3384;42.628;23.380;2023-06-24T00:36:11;94236.84;;;21.90;100.00
6694;BME280;3384;42.628;23.380;2023-06-24T00:38:38;94229.56;;;22.01;100.00
6694;BME280;3384;42.628;23.380;2023-06-24T00:41:07;94221.59;;;21.59;100.00
6694;BME280;3384;42.628;23.380;2023-06-24T00:43:34;94227.81;;;21.86;100.00
6694;BME280;3384;42.628;23.380;2023-06-24T00:46:00;94223.13;;;21.86;100.00
6694;BME280;3384;42.628;23.380;2023-06-24T00:48:28;94217.84;;;22.00;100.00
6694;BME280;3384;42.628;23.380;2023-06-24T00:50:57;94219.28;;;21.87;100.00
6694;BME280;3384;42.628;23.380;2023-06-24T00:53:26;94215.00;;;21.90;100.00
6694;BME280;3384;42.628;23.380;2023-06-24T00:55:54;94215.84;;;21.38;100.00
6694;BME280;3384;42.628;23.380;2023-06-24T00:58:22;94218.91;;;21.07;100.00
6694;BME280;3384;42.628;23.380;2023-06-24T01:00:51;94215.53;;;21.17;100.00
6694;BME280;3384;42.628;23.380;2023-06-24T01:03:23;94214.28;;;21.37;100.00
6694;BME280;3384;42.628;23.380;2023-06-24T01:05:51;94203.16;;;21.49;100.00
6694;BME280;3384;42.628;23.380;2023-06-24T01:08:18;94209.00;;;21.47;100.00
6694;BME280;3384;42.628;23.380;2023-06-24T01:10:49;94210.41;;;21.67;100.00
6694;BME280;3384;42.628;23.380;2023-06-24T01:13:17;94201.38;;;21.34;100.00
6694;BME280;3384;42.628;23.380;2023-06-24T01:15:44;94196.72;;;21.64;100.00
6694;BME280;3384;42.628;23.380;2023-06-24T01:18:21;94192.72;;;21.54;100.00
6694;BME280;3384;42.628;23.380;2023-06-24T01:20:52;94202.09;;;21.27;100.00
6694;BME280;3384;42.628;23.380;2023-06-24T01:23:52;94197.50;;;21.35;100.00
6694;BME280;3384;42.628;23.380;2023-06-24T01:26:40;94189.63;;;21.26;100.00
6694;BME280;3384;42.628;23.380;2023-06-24T01:29:36;94190.28;;;21.46;100.00
6694;BME280;3384;42.628;23.380;2023-06-24T01:32:14;94187.84;;;21.41;100.00
6694;BME280;3384;42.628;23.380;2023-06-24T01:34:54;94194.50;;;21.43;100.00
6694;BME280;3384;42.628;23.380;2023-06-24T01:37:26;94195.47;;;21.58;100.00
6694;BME280;3384;42.628;23.380;2023-06-24T01:39:57;94189.75;;;21.37;100.00
6694;BME280;3384;42.628;23.380;2023-06-24T01:42:33;94192.75;;;21.28;100.00
6694;BME280;3384;42.628;23.380;2023-06-24T01:45:02;94189.22;;;21.28;100.00
6694;BME280;3384;42.628;23.380;2023-06-24T01:47:31;94190.91;;;21.36;100.00
6694;BME280;3384;42.628;23.380;2023-06-24T01:50:01;94208.38;;;21.05;100.00
6694;BME280;3384;42.628;23.380;2023-06-24T01:52:29;94204.19;;;20.89;100.00
6694;BME280;3384;42.628;23.380;2023-06-24T01:54:58;94212.50;;;20.96;100.00
6694;BME280;3384;42.628;23.380;2023-06-24T01:57:26;94216.28;;;20.65;100.00
6694;BME280;3384;42.628;23.380;2023-06-24T01:59:54;94214.50;;;20.54;100.00
6694;BME280;3384;42.628;23.380;2023-06-24T02:02:24;94215.69;;;20.53;100.00
6694;BME280;3384;42.628;23.380;2023-06-24T02:04:54;94218.44;;;20.79;100.00
6694;BME280;3384;42.628;23.380;2023-06-24T02:07:22;94224.38;;;20.62;100.00
6694;BME280;3384;42.628;23.380;2023-06-24T02:09:51;94228.69;;;20.85;100.00
6694;BME280;3384;42.628;23.380;2023-06-24T02:12:18;94220.28;;;20.94;100.00
6694;BME280;3384;42.628;23.380;2023-06-24T02:14:47;94219.28;;;20.83;100.00
6694;BME280;3384;42.628;23.380;2023-06-24T02:17:15;94224.00;;;20.86;100.00
6694;BME280;3384;42.628;23.380;2023-06-24T02:19:43;94231.19;;;20.94;100.00
6694;BME280;3384;42.628;23.380;2023-06-24T02:22:12;94226.34;;;21.10;100.00
6694;BME280;3384;42.628;23.380;2023-06-24T02:24:39;94231.19;;;21.20;100.00
6694;BME280;3384;42.628;23.380;2023-06-24T02:27:08;94239.69;;;21.15;100.00
6694;BME280;3384;42.628;23.380;2023-06-24T02:29:37;94234.97;;;20.89;100.00
6694;BME280;3384;42.628;23.380;2023-06-24T02:32:06;94239.63;;;20.89;100.00
6694;BME280;3384;42.628;23.380;2023-06-24T02:34:33;94242.84;;;20.94;100.00
6694;BME280;3384;42.628;23.380;2023-06-24T02:37:00;94255.75;;;20.97;100.00
6694;BME280;3384;42.628;23.380;2023-06-24T02:39:28;94269.72;;;20.96;100.00
6694;BME280;3384;42.628;23.380;2023-06-24T02:41:55;94266.00;;;21.04;100.00
6694;BME280;3384;42.628;23.380;2023-06-24T02:44:22;94282.34;;;21.04;100.00
6694;BME280;3384;42.628;23.380;2023-06-24T02:46:49;94278.97;;;21.14;100.00
6694;BME280;3384;42.628;23.380;2023-06-24T02:49:17;94275.50;;;21.17;100.00
6694;BME280;3384;42.628;23.380;2023-06-24T02:51:44;94273.47;;;21.10;100.00
6694;BME280;3384;42.628;23.380;2023-06-24T02:54:11;94282.13;;;21.16;100.00
6694;BME280;3384;42.628;23.380;2023-06-24T02:56:41;94272.69;;;21.10;100.00
6694;BME280;3384;42.628;23.380;2023-06-24T02:59:10;94275.72;;;21.31;100.00
6694;BME280;3384;42.628;23.380;2023-06-24T03:01:38;94272.44;;;21.18;100.00
6694;BME280;3384;42.628;23.380;2023-06-24T03:04:05;94289.25;;;21.24;100.00
6694;BME280;3384;42.628;23.380;2023-06-24T03:06:32;94282.34;;;21.30;100.00
6694;BME280;3384;42.628;23.380;2023-06-24T03:09:02;94298.56;;;21.19;100.00
6694;BME280;3384;42.628;23.380;2023-06-24T03:11:29;94289.28;;;21.01;100.00
6694;BME280;3384;42.628;23.380;2023-06-24T03:13:59;94280.56;;;21.15;100.00
6694;BME280;3384;42.628;23.380;2023-06-24T03:16:26;94275.25;;;21.25;100.00
6694;BME280;3384;42.628;23.380;2023-06-24T03:18:52;94281.72;;;21.40;100.00
6694;BME280;3384;42.628;23.380;2023-06-24T03:21:19;94282.88;;;21.39;100.00
6694;BME280;3384;42.628;23.380;2023-06-24T03:23:46;94282.66;;;21.51;100.00
6694;BME280;3384;42.628;23.380;2023-06-24T03:26:13;94284.28;;;21.55;100.00
6694;BME280;3384;42.628;23.380;2023-06-24T03:31:08;94283.19;;;21.60;100.00
6694;BME280;3384;42.628;23.380;2023-06-24T03:33:35;94289.75;;;21.55;100.00
6694;BME280;3384;42.628;23.380;2023-06-24T03:36:02;94299.75;;;21.22;100.00
6694;BME280;3384;42.628;23.380;2023-06-24T03:38:29;94312.31;;;21.04;100.00
6694;BME280;3384;42.628;23.380;2023-06-24T03:40:55;94317.78;;;21.04;100.00
6694;BME280;3384;42.628;23.380;2023-06-24T03:43:22;94318.91;;;21.03;100.00
6694;BME280;3384;42.628;23.380;2023-06-24T03:45:49;94324.06;;;20.89;100.00
6694;BME280;3384;42.628;23.380;2023-06-24T03:48:17;94320.06;;;21.02;100.00
6694;BME280;3384;42.628;23.380;2023-06-24T03:50:44;94324.66;;;20.98;100.00
6694;BME280;3384;42.628;23.380;2023-06-24T03:53:11;94323.81;;;21.16;100.00
6694;BME280;3384;42.628;23.380;2023-06-24T03:55:37;94327.59;;;20.89;100.00
6694;BME280;3384;42.628;23.380;2023-06-24T03:58:04;94326.06;;;20.92;100.00
6694;BME280;3384;42.628;23.380;2023-06-24T04:00:31;94319.44;;;21.12;100.00
6694;BME280;3384;42.628;23.380;2023-06-24T04:02:58;94314.00;;;21.12;100.00
6694;BME280;3384;42.628;23.380;2023-06-24T04:05:27;94319.06;;;21.36;100.00
6694;BME280;3384;42.628;23.380;2023-06-24T04:07:55;94313.50;;;21.29;100.00
6694;BME280;3384;42.628;23.380;2023-06-24T04:10:21;94301.97;;;21.39;100.00
6694;BME280;3384;42.628;23.380;2023-06-24T04:12:48;94321.31;;;21.56;100.00
6694;BME280;3384;42.628;23.380;2023-06-24T04:15:15;94334.31;;;21.67;100.00
6694;BME280;3384;42.628;23.380;2023-06-24T04:17:42;94336.66;;;21.65;100.00
6694;BME280;3384;42.628;23.380;2023-06-24T04:20:09;94325.84;;;21.72;100.00
6694;BME280;3384;42.628;23.380;2023-06-24T04:22:39;94324.09;;;21.60;100.00
6694;BME280;3384;42.628;23.380;2023-06-24T04:25:07;94317.28;;;21.73;100.00
6694;BME280;3384;42.628;23.380;2023-06-24T04:27:35;94318.53;;;21.76;100.00
6694;BME280;3384;42.628;23.380;2023-06-24T04:30:03;94310.38;;;21.79;100.00
6694;BME280;3384;42.628;23.380;2023-06-24T04:32:30;94313.66;;;21.92;100.00
6694;BME280;3384;42.628;23.380;2023-06-24T04:34:57;94300.44;;;21.94;100.00
6694;BME280;3384;42.628;23.380;2023-06-24T04:37:24;94301.88;;;21.84;100.00
6694;BME280;3384;42.628;23.380;2023-06-24T04:39:52;94293.34;;;21.89;100.00
6694;BME280;3384;42.628;23.380;2023-06-24T04:42:19;94296.25;;;22.03;100.00
6694;BME280;3384;42.628;23.380;2023-06-24T04:44:48;94306.53;;;22.13;100.00
6694;BME280;3384;42.628;23.380;2023-06-24T04:47:16;94303.47;;;22.18;100.00
6694;BME280;3384;42.628;23.380;2023-06-24T04:49:43;94312.41;;;22.15;100.00
6694;BME280;3384;42.628;23.380;2023-06-24T04:52:11;94306.31;;;22.25;100.00
6694;BME280;3384;42.628;23.380;2023-06-24T04:54:37;94301.72;;;22.03;100.00
6694;BME280;3384;42.628;23.380;2023-06-24T04:57:09;94309.25;;;22.13;100.00
6694;BME280;3384;42.628;23.380;2023-06-24T04:59:36;94310.75;;;22.07;100.00
6694;BME280;3384;42.628;23.380;2023-06-24T05:02:03;94310.19;;;21.95;100.00
6694;BME280;3384;42.628;23.380;2023-06-24T05:04:30;94307.19;;;22.03;100.00
6694;BME280;3384;42.628;23.380;2023-06-24T05:06:57;94304.44;;;22.03;100.00
6694;BME280;3384;42.628;23.380;2023-06-24T05:09:24;94312.38;;;22.12;100.00
6694;BME280;3384;42.628;23.380;2023-06-24T05:11:50;94316.44;;;22.25;100.00
6694;BME280;3384;42.628;23.380;2023-06-24T05:14:19;94316.81;;;22.56;100.00
6694;BME280;3384;42.628;23.380;2023-06-24T05:16:45;94321.13;;;22.57;100.00
6694;BME280;3384;42.628;23.380;2023-06-24T05:19:12;94323.53;;;22.62;100.00
6694;BME280;3384;42.628;23.380;2023-06-24T05:21:39;94324.41;;;22.73;100.00
6694;BME280;3384;42.628;23.380;2023-06-24T05:24:06;94316.03;;;22.56;100.00
6694;BME280;3384;42.628;23.380;2023-06-24T05:26:33;94310.97;;;22.58;100.00
6694;BME280;3384;42.628;23.380;2023-06-24T05:29:00;94304.69;;;22.54;100.00
6694;BME280;3384;42.628;23.380;2023-06-24T05:31:28;94301.41;;;22.74;100.00
6694;BME280;3384;42.628;23.380;2023-06-24T05:33:55;94300.41;;;22.56;100.00
6694;BME280;3384;42.628;23.380;2023-06-24T05:36:22;94302.16;;;22.71;100.00
6694;BME280;3384;42.628;23.380;2023-06-24T05:38:48;94315.06;;;22.74;100.00
6694;BME280;3384;42.628;23.380;2023-06-24T05:41:15;94315.53;;;22.83;100.00
6694;BME280;3384;42.628;23.380;2023-06-24T05:43:43;94317.94;;;22.88;100.00
6694;BME280;3384;42.628;23.380;2023-06-24T05:46:09;94315.59;;;22.87;100.00
6694;BME280;3384;42.628;23.380;2023-06-24T05:48:38;94309.19;;;22.72;100.00
6694;BME280;3384;42.628;23.380;2023-06-24T05:51:05;94309.53;;;23.07;100.00
6694;BME280;3384;42.628;23.380;2023-06-24T05:53:32;94316.16;;;23.06;100.00
6694;BME280;3384;42.628;23.380;2023-06-24T05:55:59;94322.50;;;23.14;100.00
6694;BME280;3384;42.628;23.380;2023-06-24T05:58:26;94307.59;;;23.08;100.00
6694;BME280;3384;42.628;23.380;2023-06-24T06:00:52;94309.84;;;22.99;100.00
6694;BME280;3384;42.628;23.380;2023-06-24T06:03:20;94308.66;;;22.96;100.00
6694;BME280;3384;42.628;23.380;2023-06-24T06:05:48;94309.13;;;23.05;100.00
6694;BME280;3384;42.628;23.380;2023-06-24T06:08:15;94307.59;;;23.08;100.00
6694;BME280;3384;42.628;23.380;2023-06-24T06:10:42;94303.66;;;23.05;100.00
6694;BME280;3384;42.628;23.380;2023-06-24T06:13:09;94302.56;;;23.17;100.00
6694;BME280;3384;42.628;23.380;2023-06-24T06:15:36;94297.22;;;23.27;100.00
6694;BME280;3384;42.628;23.380;2023-06-24T06:18:03;94296.03;;;23.25;100.00
6694;BME280;3384;42.628;23.380;2023-06-24T06:20:30;94300.31;;;23.22;100.00
6694;BME280;3384;42.628;23.380;2023-06-24T06:22:58;94301.19;;;23.37;100.00
6694;BME280;3384;42.628;23.380;2023-06-24T06:25:25;94302.34;;;23.32;100.00
6694;BME280;3384;42.628;23.380;2023-06-24T06:27:51;94307.34;;;23.23;100.00
6694;BME280;3384;42.628;23.380;2023-06-24T06:30:18;94305.84;;;23.29;100.00
6694;BME280;3384;42.628;23.380;2023-06-24T06:32:45;94296.53;;;23.41;100.00
6694;BME280;3384;42.628;23.380;2023-06-24T06:35:12;94303.69;;;23.56;100.00
6694;BME280;3384;42.628;23.380;2023-06-24T06:37:39;94306.25;;;23.85;100.00
6694;BME280;3384;42.628;23.380;2023-06-24T06:40:08;94305.41;;;23.78;100.00
6694;BME280;3384;42.628;23.380;2023-06-24T06:42:35;94309.97;;;23.60;100.00
6694;BME280;3384;42.628;23.380;2023-06-24T06:45:02;94311.00;;;23.41;100.00
6694;BME280;3384;42.628;23.380;2023-06-24T06:47:29;94308.97;;;23.28;100.00
6694;BME280;3384;42.628;23.380;2023-06-24T06:49:56;94313.88;;;23.59;100.00
6694;BME280;3384;42.628;23.380;2023-06-24T06:52:22;94322.81;;;23.52;100.00
6694;BME280;3384;42.628;23.380;2023-06-24T06:54:49;94326.91;;;23.79;100.00
6694;BME280;3384;42.628;23.380;2023-06-24T06:57:17;94322.78;;;23.99;100.00
6694;BME280;3384;42.628;23.380;2023-06-24T06:59:44;94318.91;;;24.04;100.00
6694;BME280;3384;42.628;23.380;2023-06-24T07:02:11;94335.41;;;24.18;100.00
6694;BME280;3384;42.628;23.380;2023-06-24T07:04:38;94324.66;;;23.92;100.00
6694;BME280;3384;42.628;23.380;2023-06-24T07:07:05;94328.72;;;24.16;100.00
6694;BME280;3384;42.628;23.380;2023-06-24T07:09:31;94329.13;;;24.18;100.00
6694;BME280;3384;42.628;23.380;2023-06-24T07:11:58;94322.97;;;24.45;100.00
6694;BME280;3384;42.628;23.380;2023-06-24T07:14:26;94331.56;;;24.37;100.00
6694;BME280;3384;42.628;23.380;2023-06-24T07:16:53;94329.63;;;24.41;100.00
6694;BME280;3384;42.628;23.380;2023-06-24T07:19:20;94328.16;;;24.68;100.00
6694;BME280;3384;42.628;23.380;2023-06-24T07:36:25;94330.81;;;24.47;100.00
6694;BME280;3384;42.628;23.380;2023-06-24T07:38:52;94325.44;;;24.64;100.00
6694;BME280;3384;42.628;23.380;2023-06-24T07:41:18;94336.06;;;24.90;100.00
6694;BME280;3384;42.628;23.380;2023-06-24T07:43:45;94323.16;;;24.91;100.00
6694;BME280;3384;42.628;23.380;2023-06-24T07:46:12;94325.53;;;24.96;100.00
6694;BME280;3384;42.628;23.380;2023-06-24T07:48:39;94319.63;;;24.87;100.00
6694;BME280;3384;42.628;23.380;2023-06-24T07:51:06;94320.81;;;24.96;100.00
6694;BME280;3384;42.628;23.380;2023-06-24T07:53:34;94314.19;;;25.18;100.00
6694;BME280;3384;42.628;23.380;2023-06-24T07:56:01;94320.88;;;25.38;100.00
6694;BME280;3384;42.628;23.380;2023-06-24T07:58:27;94325.59;;;25.38;100.00
6694;BME280;3384;42.628;23.380;2023-06-24T08:00:54;94334.91;;;25.02;100.00
6694;BME280;3384;42.628;23.380;2023-06-24T08:03:21;94334.09;;;24.84;100.00
6694;BME280;3384;42.628;23.380;2023-06-24T08:05:48;94335.38;;;25.39;100.00
6694;BME280;3384;42.628;23.380;2023-06-24T08:08:15;94331.84;;;25.38;100.00
6694;BME280;3384;42.628;23.380;2023-06-24T08:10:45;94336.56;;;25.55;100.00
6694;BME280;3384;42.628;23.380;2023-06-24T08:13:12;94344.41;;;25.32;100.00
6694;BME280;3384;42.628;23.380;2023-06-24T08:15:38;94335.78;;;25.51;100.00
6694;BME280;3384;42.628;23.380;2023-06-24T08:18:05;94330.69;;;25.43;100.00
6694;BME280;3384;42.628;23.380;2023-06-24T08:20:32;94347.16;;;25.60;100.00
6694;BME280;3384;42.628;23.380;2023-06-24T08:22:59;94331.06;;;25.76;100.00
6694;BME280;3384;42.628;23.380;2023-06-24T08:25:26;94326.75;;;25.79;100.00
6694;BME280;3384;42.628;23.380;2023-06-24T08:27:54;94327.13;;;25.88;100.00
6694;BME280;3384;42.628;23.380;2023-06-24T08:30:21;94334.19;;;25.85;100.00
6694;BME280;3384;42.628;23.380;2023-06-24T08:32:48;94322.78;;;26.04;100.00
6694;BME280;3384;42.628;23.380;2023-06-24T08:35:15;94321.63;;;26.05;100.00
6694;BME280;3384;42.628;23.380;2023-06-24T08:37:42;94317.72;;;25.96;100.00
6694;BME280;3384;42.628;23.380;2023-06-24T08:40:10;94311.41;;;26.13;100.00
6694;BME280;3384;42.628;23.380;2023-06-24T08:42:37;94309.47;;;25.96;100.00
6694;BME280;3384;42.628;23.380;2023-06-24T08:45:06;94303.97;;;25.99;100.00
6694;BME280;3384;42.628;23.380;2023-06-24T08:47:33;94307.44;;;26.24;100.00
6694;BME280;3384;42.628;23.380;2023-06-24T08:50:04;94312.91;;;26.35;100.00
6694;BME280;3384;42.628;23.380;2023-06-24T08:52:35;94305.03;;;26.37;100.00
6694;BME280;3384;42.628;23.380;2023-06-24T08:55:02;94303.03;;;26.41;100.00
6694;BME280;3384;42.628;23.380;2023-06-24T08:57:31;94293.56;;;26.56;100.00
6694;BME280;3384;42.628;23.380;2023-06-24T08:59:57;94287.69;;;26.61;100.00
6694;BME280;3384;42.628;23.380;2023-06-24T09:02:27;94292.81;;;26.52;100.00
6694;BME280;3384;42.628;23.380;2023-06-24T09:04:53;94300.72;;;26.39;100.00
6694;BME280;3384;42.628;23.380;2023-06-24T09:07:26;94304.63;;;26.38;100.00
6694;BME280;3384;42.628;23.380;2023-06-24T09:09:53;94301.56;;;26.19;100.00
6694;BME280;3384;42.628;23.380;2023-06-24T09:12:20;94290.47;;;26.47;100.00
6694;BME280;3384;42.628;23.380;2023-06-24T09:14:48;94296.34;;;26.49;100.00
6694;BME280;3384;42.628;23.380;2023-06-24T09:17:16;94284.13;;;26.57;100.00
6694;BME280;3384;42.628;23.380;2023-06-24T09:19:44;94290.78;;;26.70;100.00
6694;BME280;3384;42.628;23.380;2023-06-24T09:22:11;94297.75;;;26.85;100.00
6694;BME280;3384;42.628;23.380;2023-06-24T09:24:43;94291.50;;;26.85;100.00
6694;BME280;3384;42.628;23.380;2023-06-24T09:27:12;94299.72;;;26.92;100.00
6694;BME280;3384;42.628;23.380;2023-06-24T09:29:41;94289.09;;;26.90;100.00
6694;BME280;3384;42.628;23.380;2023-06-24T09:32:08;94299.63;;;27.02;100.00
6694;BME280;3384;42.628;23.380;2023-06-24T09:34:36;94298.13;;;26.94;100.00
6694;BME280;3384;42.628;23.380;2023-06-24T09:37:04;94299.72;;;26.88;100.00
6694;BME280;3384;42.628;23.380;2023-06-24T09:39:35;94297.00;;;26.85;100.00
6694;BME280;3384;42.628;23.380;2023-06-24T09:42:04;94301.03;;;26.59;100.00
6694;BME280;3384;42.628;23.380;2023-06-24T09:44:31;94303.25;;;26.89;100.00
6694;BME280;3384;42.628;23.380;2023-06-24T09:46:58;94291.44;;;26.92;100.00
6694;BME280;3384;42.628;23.380;2023-06-24T09:49:24;94307.03;;;27.16;100.00
6694;BME280;3384;42.628;23.380;2023-06-24T09:51:55;94297.81;;;26.82;100.00
6694;BME280;3384;42.628;23.380;2023-06-24T09:54:25;94299.31;;;26.93;100.00
6694;BME280;3384;42.628;23.380;2023-06-24T09:56:54;94296.03;;;27.09;100.00
6694;BME280;3384;42.628;23.380;2023-06-24T09:59:21;94299.94;;;27.15;100.00
6694;BME280;3384;42.628;23.380;2023-06-24T10:01:52;94289.69;;;27.22;100.00
6694;BME280;3384;42.628;23.380;2023-06-24T10:04:20;94279.44;;;27.26;100.00
6694;BME280;3384;42.628;23.380;2023-06-24T10:06:48;94284.97;;;27.23;100.00
6694;BME280;3384;42.628;23.380;2023-06-24T10:09:15;94280.34;;;27.06;100.00
6694;BME280;3384;42.628;23.380;2023-06-24T10:11:45;94275.09;;;27.29;100.00
6694;BME280;3384;42.628;23.380;2023-06-24T10:14:12;94263.72;;;27.23;100.00
6694;BME280;3384;42.628;23.380;2023-06-24T10:16:39;94268.44;;;27.19;100.00
6694;BME280;3384;42.628;23.380;2023-06-24T10:19:06;94257.00;;;27.28;100.00
6694;BME280;3384;42.628;23.380;2023-06-24T10:21:46;94255.22;;;27.51;100.00
6694;BME280;3384;42.628;23.380;2023-06-24T10:24:27;94246.06;;;27.65;100.00
6694;BME280;3384;42.628;23.380;2023-06-24T10:27:01;94244.06;;;27.69;100.00
6694;BME280;3384;42.628;23.380;2023-06-24T10:29:32;94240.69;;;27.51;100.00
6694;BME280;3384;42.628;23.380;2023-06-24T10:32:04;94238.50;;;27.72;100.00
6694;BME280;3384;42.628;23.380;2023-06-24T10:34:32;94236.16;;;27.71;100.00
6694;BME280;3384;42.628;23.380;2023-06-24T10:37:01;94229.75;;;27.81;100.00
6694;BME280;3384;42.628;23.380;2023-06-24T10:39:38;94227.34;;;27.86;100.00
6694;BME280;3384;42.628;23.380;2023-06-24T10:42:26;94219.78;;;27.97;100.00
6694;BME280;3384;42.628;23.380;2023-06-24T10:44:54;94211.47;;;28.01;100.00
6694;BME280;3384;42.628;23.380;2023-06-24T10:47:22;94218.25;;;27.93;100.00
6694;BME280;3384;42.628;23.380;2023-06-24T10:49:49;94214.91;;;28.08;100.00
6694;BME280;3384;42.628;23.380;2023-06-24T10:52:18;94203.84;;;28.12;100.00
6694;BME280;3384;42.628;23.380;2023-06-24T10:54:45;94195.06;;;28.20;100.00
6694;BME280;3384;42.628;23.380;2023-06-24T10:57:12;94196.69;;;28.18;100.00
6694;BME280;3384;42.628;23.380;2023-06-24T10:59:41;94199.34;;;28.25;100.00
6694;BME280;3384;42.628;23.380;2023-06-24T11:02:09;94197.81;;;28.24;100.00
6694;BME280;3384;42.628;23.380;2023-06-24T11:04:43;94196.38;;;28.12;100.00
6694;BME280;3384;42.628;23.380;2023-06-24T11:07:10;94195.16;;;28.13;100.00
6694;BME280;3384;42.628;23.380;2023-06-24T11:09:37;94191.06;;;28.28;100.00
6694;BME280;3384;42.628;23.380;2023-06-24T11:12:05;94188.41;;;28.18;100.00
6694;BME280;3384;42.628;23.380;2023-06-24T11:14:33;94184.28;;;28.33;100.00
6694;BME280;3384;42.628;23.380;2023-06-24T11:17:02;94179.03;;;28.42;100.00
6694;BME280;3384;42.628;23.380;2023-06-24T11:19:29;94189.94;;;28.22;100.00
6694;BME280;3384;42.628;23.380;2023-06-24T11:21:59;94188.97;;;28.36;100.00
6694;BME280;3384;42.628;23.380;2023-06-24T11:24:27;94188.50;;;28.41;100.00
6694;BME280;3384;42.628;23.380;2023-06-24T11:26:53;94185.91;;;28.60;96.66
6694;BME280;3384;42.628;23.380;2023-06-24T11:29:20;94185.13;;;28.60;87.96
6694;BME280;3384;42.628;23.380;2023-06-24T11:31:48;94182.56;;;28.72;85.19
6694;BME280;3384;42.628;23.380;2023-06-24T11:34:16;94196.47;;;28.65;87.91
6694;BME280;3384;42.628;23.380;2023-06-24T11:36:43;94197.97;;;28.70;91.31
6694;BME280;3384;42.628;23.380;2023-06-24T11:39:20;94203.56;;;28.66;89.97
6694;BME280;3384;42.628;23.380;2023-06-24T11:41:47;94175.06;;;28.46;82.25
6694;BME280;3384;42.628;23.380;2023-06-24T11:44:14;94184.25;;;28.36;86.92
6694;BME280;3384;42.628;23.380;2023-06-24T11:46:41;94179.03;;;28.42;90.72
6694;BME280;3384;42.628;23.380;2023-06-24T11:49:08;94172.72;;;28.45;91.03
6694;BME280;3384;42.628;23.380;2023-06-24T11:51:37;94170.63;;;28.52;91.43
6694;BME280;3384;42.628;23.380;2023-06-24T11:54:14;94154.81;;;28.83;90.15
6694;BME280;3384;42.628;23.380;2023-06-24T11:56:42;94151.41;;;28.98;94.10
6694;BME280;3384;42.628;23.380;2023-06-24T11:59:15;94151.22;;;29.13;94.82
6694;BME280;3384;42.628;23.380;2023-06-24T12:01:43;94143.66;;;28.90;88.86
6694;BME280;3384;42.628;23.380;2023-06-24T12:04:11;94147.66;;;29.12;83.46
6694;BME280;3384;42.628;23.380;2023-06-24T12:06:40;94133.81;;;29.16;87.95
6694;BME280;3384;42.628;23.380;2023-06-24T12:09:07;94123.72;;;29.06;88.14
6694;BME280;3384;42.628;23.380;2023-06-24T12:11:34;94118.22;;;28.79;86.68
6694;BME280;3384;42.628;23.380;2023-06-24T12:14:00;94125.00;;;28.74;90.46
6694;BME280;3384;42.628;23.380;2023-06-24T12:16:27;94120.09;;;28.85;87.36
6694;BME280;3384;42.628;23.380;2023-06-24T12:18:54;94113.72;;;28.88;91.81
6694;BME280;3384;42.628;23.380;2023-06-24T12:21:24;94115.50;;;28.75;93.55
6694;BME280;3384;42.628;23.380;2023-06-24T12:23:52;94120.34;;;28.68;97.56
6694;BME280;3384;42.628;23.380;2023-06-24T12:26:19;94107.31;;;28.45;100.00
6694;BME280;3384;42.628;23.380;2023-06-24T12:28:46;94113.41;;;28.60;100.00
6694;BME280;3384;42.628;23.380;2023-06-24T12:31:12;94119.53;;;28.44;100.00
6694;BME280;3384;42.628;23.380;2023-06-24T12:33:39;94124.59;;;28.49;98.18
6694;BME280;3384;42.628;23.380;2023-06-24T12:36:06;94131.63;;;28.24;100.00
6694;BME280;3384;42.628;23.380;2023-06-24T12:38:33;94132.16;;;28.15;100.00
6694;BME280;3384;42.628;23.380;2023-06-24T12:41:03;94146.72;;;28.46;100.00
6694;BME280;3384;42.628;23.380;2023-06-24T12:43:30;94145.25;;;28.64;100.00
6694;BME280;3384;42.628;23.380;2023-06-24T12:45:57;94151.59;;;28.61;100.00
6694;BME280;3384;42.628;23.380;2023-06-24T12:48:24;94159.56;;;28.56;100.00
6694;BME280;3384;42.628;23.380;2023-06-24T12:50:52;94164.03;;;28.46;100.00
6694;BME280;3384;42.628;23.380;2023-06-24T12:53:19;94168.22;;;28.24;100.00
6694;BME280;3384;42.628;23.380;2023-06-24T12:55:46;94180.38;;;28.30;100.00
6694;BME280;3384;42.628;23.380;2023-06-24T12:58:19;94185.19;;;27.93;100.00
6694;BME280;3384;42.628;23.380;2023-06-24T13:00:46;94186.09;;;27.79;100.00
6694;BME280;3384;42.628;23.380;2023-06-24T13:03:13;94181.34;;;27.83;100.00
6694;BME280;3384;42.628;23.380;2023-06-24T13:05:40;94177.78;;;27.86;100.00
6694;BME280;3384;42.628;23.380;2023-06-24T13:08:06;94175.16;;;27.72;100.00
6694;BME280;3384;42.628;23.380;2023-06-24T13:10:36;94168.53;;;27.66;100.00
6694;BME280;3384;42.628;23.380;2023-06-24T13:13:03;94156.00;;;27.62;100.00
6694;BME280;3384;42.628;23.380;2023-06-24T13:15:32;94146.75;;;27.79;100.00
6694;BME280;3384;42.628;23.380;2023-06-24T13:17:58;94136.16;;;27.77;100.00
6694;BME280;3384;42.628;23.380;2023-06-24T13:20:26;94131.31;;;27.88;100.00
6694;BME280;3384;42.628;23.380;2023-06-24T13:22:53;94114.47;;;27.79;100.00